createdAt,value
2023-10-23T00:01:37.107Z,7.93
2023-10-23T00:04:06.396Z,8.15
2023-10-23T00:06:34.978Z,8.63
2023-10-23T00:09:02.302Z,7.78
2023-10-23T00:11:31.889Z,7.72
2023-10-23T00:13:59.139Z,8.13
2023-10-23T00:16:26.439Z,7.93
2023-10-23T00:18:53.723Z,8.15
2023-10-23T00:21:20.936Z,9.05
2023-10-23T00:23:48.101Z,9.00
2023-10-23T00:26:15.598Z,8.63
2023-10-23T00:28:42.491Z,9.20
2023-10-23T00:31:09.349Z,8.98
2023-10-23T00:33:36.619Z,9.43
2023-10-23T00:36:03.705Z,8.82
2023-10-23T00:38:30.750Z,9.07
2023-10-23T00:40:57.904Z,9.38
2023-10-23T00:43:25.858Z,10.15
2023-10-23T00:45:59.166Z,9.10
2023-10-23T00:48:27.832Z,9.68
2023-10-23T00:51:01.549Z,9.23
2023-10-23T00:53:35.536Z,8.95
2023-10-23T00:56:04.962Z,9.75
2023-10-23T00:58:39.182Z,10.63
2023-10-23T01:01:07.471Z,10.43
2023-10-23T01:03:35.390Z,10.87
2023-10-23T01:06:02.607Z,11.95
2023-10-23T01:08:29.625Z,13.05
2023-10-23T01:10:56.976Z,14.35
2023-10-23T01:13:24.674Z,13.30
2023-10-23T01:15:51.790Z,14.37
2023-10-23T01:18:19.499Z,13.88
2023-10-23T01:20:46.593Z,12.63
2023-10-23T01:23:16.533Z,13.45
2023-10-23T01:25:43.708Z,13.48
2023-10-23T01:28:10.613Z,13.93
2023-10-23T01:30:37.545Z,14.43
2023-10-23T01:33:05.078Z,14.27
2023-10-23T01:35:31.996Z,13.73
2023-10-23T01:37:58.769Z,12.75
2023-10-23T01:40:25.788Z,13.47
2023-10-23T01:42:52.794Z,14.35
2023-10-23T01:45:19.745Z,14.25
2023-10-23T01:47:46.972Z,12.52
2023-10-23T01:50:13.762Z,12.40
2023-10-23T01:52:40.683Z,11.63
2023-10-23T01:55:08.510Z,12.40
2023-10-23T01:57:36.382Z,11.90
2023-10-23T02:00:03.779Z,12.77
2023-10-23T02:02:34.796Z,12.55
2023-10-23T02:05:01.924Z,13.53
2023-10-23T02:07:28.799Z,14.65
2023-10-23T02:09:56.765Z,16.17
2023-10-23T02:12:24.288Z,17.52
2023-10-23T02:14:51.524Z,16.60
2023-10-23T02:17:19.166Z,17.87
2023-10-23T02:19:46.670Z,16.33
2023-10-23T02:22:13.559Z,19.30
2023-10-23T02:24:41.013Z,19.45
2023-10-23T02:27:07.898Z,22.55
2023-10-23T02:29:35.128Z,22.20
2023-10-23T02:32:02.519Z,22.60
2023-10-23T02:34:29.409Z,27.63
2023-10-23T02:36:56.393Z,30.23
2023-10-23T02:39:23.778Z,26.95
2023-10-23T02:41:50.766Z,26.60
2023-10-23T02:44:17.729Z,27.85
2023-10-23T02:46:45.001Z,29.42
2023-10-23T02:49:13.195Z,28.17
2023-10-23T02:51:40.450Z,26.30
2023-10-23T02:54:07.869Z,24.23
2023-10-23T02:56:35.285Z,25.13
2023-10-23T02:59:02.200Z,23.67
2023-10-23T03:01:29.596Z,23.17
2023-10-23T03:03:56.728Z,22.77
2023-10-23T03:06:23.870Z,25.37
2023-10-23T03:08:51.268Z,23.45
2023-10-23T03:11:18.334Z,20.98
2023-10-23T03:13:45.244Z,21.33
2023-10-23T03:16:14.624Z,22.17
2023-10-23T03:18:41.593Z,19.63
2023-10-23T03:21:08.650Z,17.75
2023-10-23T03:23:36.808Z,19.48
2023-10-23T03:26:03.952Z,22.25
2023-10-23T03:28:30.873Z,19.73
2023-10-23T03:31:01.517Z,21.47
2023-10-23T03:33:28.591Z,19.83
2023-10-23T03:35:55.392Z,19.73
2023-10-23T03:38:22.586Z,18.05
2023-10-23T03:41:00.253Z,17.17
2023-10-23T03:43:27.409Z,17.33
2023-10-23T03:45:54.696Z,19.92
2023-10-23T03:48:21.680Z,25.45
2023-10-23T03:50:49.033Z,25.63
2023-10-23T03:53:15.877Z,20.48
2023-10-23T03:55:42.679Z,19.53
2023-10-23T03:58:09.754Z,23.15
2023-10-23T04:00:36.772Z,20.83
2023-10-23T04:03:03.814Z,20.73
2023-10-23T04:05:40.785Z,22.73
2023-10-23T04:08:08.982Z,21.00
2023-10-23T04:10:48.867Z,21.75
2023-10-23T04:13:20.424Z,23.75
2023-10-23T04:16:00.861Z,23.08
2023-10-23T04:18:27.822Z,23.48
2023-10-23T04:21:08.469Z,22.83
2023-10-23T04:23:39.273Z,22.10
2023-10-23T04:26:07.828Z,20.83
2023-10-23T04:28:35.826Z,20.95
2023-10-23T04:31:02.665Z,21.13
2023-10-23T04:33:29.817Z,19.20
2023-10-23T04:35:58.425Z,19.83
2023-10-23T04:38:26.006Z,20.85
2023-10-23T04:40:53.353Z,21.52
2023-10-23T04:43:20.775Z,21.60
2023-10-23T04:45:47.669Z,21.07
2023-10-23T04:48:14.754Z,23.88
2023-10-23T04:50:41.723Z,27.38
2023-10-23T04:53:08.648Z,27.05
2023-10-23T04:55:37.405Z,29.48
2023-10-23T04:58:04.636Z,31.40
2023-10-23T05:00:39.689Z,36.17
2023-10-23T05:03:07.378Z,36.42
2023-10-23T05:05:35.921Z,40.33
2023-10-23T05:08:03.662Z,36.00
2023-10-23T05:10:31.245Z,34.77
2023-10-23T05:12:58.317Z,31.08
2023-10-23T05:15:25.276Z,35.05
2023-10-23T05:17:52.479Z,33.55
2023-10-23T05:20:19.388Z,34.30
2023-10-23T05:22:46.233Z,33.63
2023-10-23T05:25:14.149Z,34.72
2023-10-23T05:27:41.465Z,33.80
2023-10-23T05:30:11.232Z,33.67
2023-10-23T05:32:38.601Z,36.83
2023-10-23T05:35:06.495Z,35.43
2023-10-23T05:37:38.912Z,33.28
2023-10-23T05:40:08.484Z,32.85
2023-10-23T05:42:35.616Z,30.27
2023-10-23T05:45:02.408Z,32.08
2023-10-23T05:47:29.780Z,33.77
2023-10-23T05:49:56.690Z,36.35
2023-10-23T05:52:23.528Z,38.03
2023-10-23T05:54:50.538Z,33.15
2023-10-23T05:57:17.534Z,35.13
2023-10-23T05:59:44.394Z,32.47
2023-10-23T06:02:13.951Z,32.85
2023-10-23T06:04:45.078Z,34.97
2023-10-23T06:07:12.787Z,35.20
2023-10-23T06:09:39.973Z,34.97
2023-10-23T06:12:10.013Z,31.37
2023-10-23T06:14:37.271Z,29.25
2023-10-23T06:17:05.021Z,29.63
2023-10-23T06:19:32.127Z,30.50
2023-10-23T06:21:59.357Z,33.35
2023-10-23T06:24:27.610Z,33.37
2023-10-23T06:26:54.666Z,30.63
2023-10-23T06:29:23.293Z,33.10
2023-10-23T06:31:50.062Z,33.22
2023-10-23T06:34:16.949Z,27.95
2023-10-23T06:36:44.084Z,31.17
2023-10-23T06:39:10.946Z,38.08
2023-10-23T06:41:37.674Z,34.95
2023-10-23T06:44:05.091Z,36.58
2023-10-23T06:46:31.956Z,28.75
2023-10-23T06:48:58.677Z,34.73
2023-10-23T06:51:25.706Z,31.60
2023-10-23T06:53:52.498Z,35.25
2023-10-23T06:56:19.296Z,32.67
2023-10-23T06:58:46.240Z,35.08
2023-10-23T07:01:13.011Z,36.20
2023-10-23T07:03:40.103Z,35.05
2023-10-23T07:06:08.623Z,38.05
2023-10-23T07:08:36.337Z,40.78
2023-10-23T07:11:03.175Z,33.53
2023-10-23T07:13:30.116Z,31.80
2023-10-23T07:15:57.080Z,35.28
2023-10-23T07:18:24.101Z,125.03
2023-10-23T07:20:59.343Z,49.38
2023-10-23T07:23:26.815Z,39.78
2023-10-23T07:26:08.869Z,35.67
2023-10-23T07:28:36.827Z,43.83
2023-10-23T07:31:04.003Z,46.63
2023-10-23T07:33:31.011Z,39.35
2023-10-23T07:36:08.654Z,36.83
2023-10-23T07:38:37.198Z,83.80
2023-10-23T07:41:04.003Z,36.22
2023-10-23T07:43:31.210Z,37.03
2023-10-23T07:46:14.553Z,40.05
2023-10-23T07:48:44.093Z,38.10
2023-10-23T07:51:11.409Z,95.10
2023-10-23T07:53:38.359Z,70.57
2023-10-23T07:56:06.493Z,44.78
2023-10-23T07:58:34.186Z,36.35
2023-10-23T08:01:20.375Z,64.70
2023-10-23T08:03:47.463Z,36.10
2023-10-23T08:06:16.044Z,56.55
2023-10-23T08:08:43.629Z,53.35
2023-10-23T08:11:12.082Z,46.55
2023-10-23T08:13:39.532Z,39.22
2023-10-23T08:16:07.452Z,28.67
2023-10-23T08:18:39.967Z,27.77
2023-10-23T08:21:23.154Z,30.38
2023-10-23T08:23:50.202Z,37.95
2023-10-23T08:26:17.049Z,29.65
2023-10-23T08:31:25.473Z,32.60
2023-10-23T08:34:00.586Z,27.10
2023-10-23T08:36:30.780Z,28.15
2023-10-23T08:38:57.978Z,24.90
2023-10-23T08:41:26.971Z,23.00
2023-10-23T08:43:54.763Z,22.63
2023-10-23T08:46:27.330Z,37.80
2023-10-23T08:48:54.855Z,25.20
2023-10-23T08:51:21.793Z,26.77
2023-10-23T08:54:09.637Z,30.50
2023-10-23T08:56:40.291Z,27.05
2023-10-23T08:59:10.376Z,28.92
2023-10-23T09:01:40.787Z,23.83
2023-10-23T09:04:08.999Z,26.42
2023-10-23T09:06:36.504Z,29.83
2023-10-23T09:09:05.763Z,25.95
2023-10-23T09:11:44.755Z,28.63
2023-10-23T09:14:21.793Z,43.35
2023-10-23T09:16:49.381Z,32.28
2023-10-23T09:19:29.344Z,43.73
2023-10-23T09:21:59.470Z,25.00
2023-10-23T09:24:26.690Z,29.95
2023-10-23T09:26:53.727Z,39.88
2023-10-23T09:29:28.262Z,29.02
2023-10-23T09:31:56.817Z,26.67
2023-10-23T09:34:24.238Z,28.35
2023-10-23T09:36:52.230Z,25.95
2023-10-23T09:39:20.641Z,26.40
2023-10-23T09:41:47.684Z,21.23
2023-10-23T09:44:15.111Z,26.40
2023-10-23T09:46:42.501Z,27.25
2023-10-23T09:49:10.458Z,23.52
2023-10-23T09:51:39.676Z,22.15
2023-10-23T09:54:17.675Z,32.92
2023-10-23T09:56:52.944Z,24.23
2023-10-23T09:59:41.216Z,23.08
2023-10-23T10:02:10.899Z,20.55
2023-10-23T10:04:48.743Z,20.45
2023-10-23T10:07:23.131Z,18.60
2023-10-23T10:09:51.010Z,18.67
2023-10-23T10:12:19.547Z,19.35
2023-10-23T10:14:48.135Z,19.85
2023-10-23T10:17:18.462Z,18.45
2023-10-23T10:19:46.770Z,18.98
2023-10-23T10:22:24.700Z,15.83
2023-10-23T10:24:53.544Z,17.17
2023-10-23T10:27:20.463Z,21.55
2023-10-23T10:29:47.234Z,19.90
2023-10-23T10:32:14.493Z,18.63
2023-10-23T10:34:47.806Z,17.17
2023-10-23T10:37:30.030Z,21.15
2023-10-23T10:39:56.922Z,25.33
2023-10-23T10:42:26.532Z,17.35
2023-10-23T10:44:57.924Z,19.88
2023-10-23T10:47:40.634Z,15.97
2023-10-23T10:50:08.070Z,15.32
2023-10-23T10:52:37.559Z,28.08
2023-10-23T10:55:09.497Z,27.10
2023-10-23T10:57:46.762Z,24.03
2023-10-23T11:00:14.118Z,20.60
2023-10-23T11:02:41.626Z,20.05
2023-10-23T11:05:10.105Z,19.10
2023-10-23T11:07:37.496Z,18.02
2023-10-23T11:10:05.338Z,17.17
2023-10-23T11:12:33.001Z,16.75
2023-10-23T11:14:59.815Z,15.23
2023-10-23T11:17:26.915Z,13.68
2023-10-23T11:19:53.813Z,13.60
2023-10-23T11:22:23.746Z,12.23
2023-10-23T11:24:50.806Z,12.55
2023-10-23T11:27:17.703Z,11.55
2023-10-23T11:29:48.697Z,11.95
2023-10-23T11:32:17.392Z,12.73
2023-10-23T11:34:44.917Z,13.70
2023-10-23T11:37:12.748Z,13.38
2023-10-23T11:39:41.323Z,13.00
2023-10-23T11:42:08.233Z,11.80
2023-10-23T11:44:36.106Z,12.27
2023-10-23T11:47:04.795Z,11.47
2023-10-23T11:49:32.340Z,12.38
2023-10-23T11:52:00.924Z,11.20
2023-10-23T11:54:29.158Z,10.25
2023-10-23T11:57:00.382Z,10.82
2023-10-23T11:59:28.017Z,10.37
2023-10-23T12:01:55.324Z,10.52
2023-10-23T12:04:22.408Z,11.25
2023-10-23T12:06:49.495Z,11.27
2023-10-23T12:09:16.625Z,10.55
2023-10-23T12:11:43.443Z,12.00
2023-10-23T12:14:10.276Z,11.90
2023-10-23T12:16:37.421Z,11.75
2023-10-23T12:19:04.621Z,11.85
2023-10-23T12:21:31.660Z,13.00
2023-10-23T12:23:58.535Z,14.03
2023-10-23T12:26:25.404Z,12.90
2023-10-23T12:28:52.193Z,12.98
2023-10-23T12:31:22.562Z,11.95
2023-10-23T12:33:50.556Z,12.38
2023-10-23T12:36:17.703Z,12.40
2023-10-23T12:38:44.707Z,12.75
2023-10-23T12:41:11.569Z,13.02
2023-10-23T12:43:39.006Z,13.30
2023-10-23T12:46:06.720Z,13.40
2023-10-23T12:48:36.778Z,13.50
2023-10-23T12:51:03.713Z,13.55
2023-10-23T12:53:31.258Z,13.05
2023-10-23T12:55:58.097Z,13.85
2023-10-23T12:58:25.007Z,12.80
2023-10-23T13:00:52.205Z,14.27
2023-10-23T13:03:19.058Z,13.13
2023-10-23T13:05:45.884Z,12.82
2023-10-23T13:08:12.954Z,13.10
2023-10-23T13:10:39.767Z,12.90
2023-10-23T13:13:06.742Z,12.63
2023-10-23T13:15:33.771Z,12.70
2023-10-23T13:18:00.721Z,13.40
2023-10-23T13:21:27.962Z,13.52
2023-10-23T13:23:14.560Z,12.85
2023-10-23T13:25:41.423Z,12.97
2023-10-23T13:28:08.233Z,13.75
2023-10-23T13:30:36.348Z,13.45
2023-10-23T13:33:03.189Z,12.85
2023-10-23T13:35:30.016Z,13.95
2023-10-23T13:37:57.056Z,15.43
2023-10-23T13:40:24.030Z,15.20
2023-10-23T13:42:51.010Z,17.02
2023-10-23T13:45:18.195Z,17.05
2023-10-23T13:47:45.253Z,17.08
2023-10-23T13:50:12.273Z,18.47
2023-10-23T13:52:41.354Z,18.08
2023-10-23T13:55:08.961Z,17.73
2023-10-23T13:57:38.748Z,18.00
2023-10-23T14:00:06.868Z,18.42
2023-10-23T14:02:33.794Z,18.60
2023-10-23T14:05:00.781Z,18.08
2023-10-23T14:07:28.070Z,18.27
2023-10-23T14:09:54.997Z,17.02
2023-10-23T14:12:21.931Z,17.73
2023-10-23T14:14:48.865Z,18.20
2023-10-23T14:17:15.739Z,18.05
2023-10-23T14:19:47.699Z,17.48
2023-10-23T14:22:19.012Z,17.73
2023-10-23T14:24:47.715Z,17.70
2023-10-23T14:27:14.592Z,17.77
2023-10-23T14:29:41.827Z,18.73
2023-10-23T14:32:09.068Z,18.75
2023-10-23T14:34:36.570Z,19.05
2023-10-23T14:37:03.976Z,19.88
2023-10-23T14:39:30.927Z,18.20
2023-10-23T14:41:57.923Z,18.80
2023-10-23T14:44:25.339Z,18.42
2023-10-23T14:46:53.072Z,18.77
2023-10-23T14:49:20.296Z,18.30
2023-10-23T14:51:47.496Z,18.83
2023-10-23T14:54:15.048Z,18.30
2023-10-23T14:56:41.890Z,19.05
2023-10-23T14:59:09.194Z,18.83
2023-10-23T15:01:39.357Z,18.85
2023-10-23T15:04:06.946Z,18.10
2023-10-23T15:06:34.011Z,18.05
2023-10-23T15:09:01.214Z,18.10
2023-10-23T15:11:28.146Z,19.60
2023-10-23T15:13:55.279Z,21.35
2023-10-23T15:16:22.228Z,21.57
2023-10-23T15:18:50.758Z,20.05
2023-10-23T15:21:17.759Z,20.10
2023-10-23T15:23:44.745Z,19.30
2023-10-23T15:26:11.957Z,19.42
2023-10-23T15:28:39.184Z,20.20
2023-10-23T15:31:07.360Z,18.60
2023-10-23T15:33:35.233Z,19.92
2023-10-23T15:36:03.313Z,20.88
2023-10-23T15:38:31.040Z,18.85
2023-10-23T15:41:14.422Z,19.50
2023-10-23T15:43:42.708Z,20.60
2023-10-23T15:46:13.931Z,20.65
2023-10-23T15:48:42.565Z,19.77
2023-10-23T15:51:10.022Z,20.67
2023-10-23T15:53:37.134Z,20.83
2023-10-23T15:56:04.606Z,20.90
2023-10-23T15:58:32.245Z,20.30
2023-10-23T16:01:02.541Z,20.13
2023-10-23T16:03:29.695Z,20.98
2023-10-23T16:06:05.190Z,20.10
2023-10-23T16:08:32.567Z,21.08
2023-10-23T16:11:00.843Z,20.50
2023-10-23T16:13:27.730Z,19.63
2023-10-23T16:15:59.080Z,19.52
2023-10-23T16:18:25.982Z,18.87
2023-10-23T16:20:52.814Z,19.13
2023-10-23T16:23:19.746Z,20.10
2023-10-23T16:25:46.602Z,20.55
2023-10-23T16:28:13.558Z,19.13
2023-10-23T16:30:41.002Z,19.40
2023-10-23T16:33:10.463Z,18.77
2023-10-23T16:35:37.715Z,18.88
2023-10-23T16:38:05.121Z,18.63
2023-10-23T16:40:32.145Z,19.42
2023-10-23T16:42:59.317Z,19.97
2023-10-23T16:45:26.340Z,18.25
2023-10-23T16:47:53.178Z,18.75
2023-10-23T16:50:20.022Z,18.70
2023-10-23T16:52:47.056Z,17.77
2023-10-23T16:55:13.984Z,20.53
2023-10-23T16:57:40.814Z,18.70
2023-10-23T17:00:10.282Z,18.40
2023-10-23T17:02:37.396Z,18.05
2023-10-23T17:05:05.263Z,19.40
2023-10-23T17:07:32.556Z,17.47
2023-10-23T17:10:00.191Z,17.48
2023-10-23T17:12:27.213Z,17.77
2023-10-23T17:14:54.279Z,18.55
2023-10-23T17:17:21.183Z,17.48
2023-10-23T17:19:48.493Z,19.00
2023-10-23T17:22:16.028Z,17.88
2023-10-23T17:24:42.909Z,18.35
2023-10-23T17:27:09.682Z,17.80
2023-10-23T17:29:36.798Z,18.30
2023-10-23T17:32:03.902Z,18.40
2023-10-23T17:34:31.034Z,18.00
2023-10-23T17:36:58.102Z,18.05
2023-10-23T17:39:25.007Z,19.05
2023-10-23T17:41:51.861Z,18.38
2023-10-23T17:44:19.918Z,18.20
2023-10-23T17:46:48.233Z,17.75
2023-10-23T17:49:15.160Z,19.55
2023-10-23T17:51:42.092Z,21.60
2023-10-23T17:54:08.905Z,20.08
2023-10-23T17:56:37.114Z,19.27
2023-10-23T17:59:05.293Z,18.65
2023-10-23T18:01:32.389Z,18.52
2023-10-23T18:03:59.928Z,17.75
2023-10-23T18:06:27.004Z,18.40
2023-10-23T18:08:53.854Z,18.13
2023-10-23T18:11:20.821Z,18.27
2023-10-23T18:13:47.945Z,18.17
2023-10-23T18:16:15.330Z,18.08
2023-10-23T18:18:42.234Z,18.33
2023-10-23T18:21:09.278Z,18.53
2023-10-23T18:23:37.135Z,18.10
2023-10-23T18:26:03.969Z,16.70
2023-10-23T18:28:33.267Z,18.98
2023-10-23T18:31:00.625Z,18.27
2023-10-23T18:33:28.009Z,17.00
2023-10-23T18:35:55.137Z,17.52
2023-10-23T18:38:21.946Z,19.00
2023-10-23T18:40:48.832Z,18.42
2023-10-23T18:43:15.930Z,17.65
2023-10-23T18:45:43.687Z,19.03
2023-10-23T18:48:10.677Z,18.48
2023-10-23T18:50:37.834Z,18.90
2023-10-23T18:53:04.652Z,18.63
2023-10-23T18:55:31.656Z,18.60
2023-10-23T18:57:58.817Z,17.20
2023-10-23T19:00:25.873Z,18.13
2023-10-23T19:02:52.836Z,18.83
2023-10-23T19:05:20.044Z,19.15
2023-10-23T19:07:47.031Z,19.33
2023-10-23T19:10:13.987Z,19.83
2023-10-23T19:12:41.076Z,19.73
2023-10-23T19:15:08.297Z,21.17
2023-10-23T19:20:07.500Z,20.17
2023-10-23T19:22:34.394Z,19.27
2023-10-23T19:25:01.177Z,19.30
2023-10-23T19:27:28.149Z,19.23
2023-10-23T19:29:55.007Z,19.35
2023-10-23T19:32:22.107Z,20.55
2023-10-23T19:34:49.942Z,20.77
2023-10-23T19:37:17.154Z,19.85
2023-10-23T19:39:45.577Z,20.40
2023-10-23T19:42:16.837Z,18.80
2023-10-23T19:44:43.982Z,20.75
2023-10-23T19:47:14.955Z,19.93
2023-10-23T19:49:43.732Z,20.13
2023-10-23T19:52:13.997Z,21.65
2023-10-23T19:54:43.317Z,19.55
2023-10-23T19:57:17.594Z,20.70
2023-10-23T19:59:44.507Z,19.37
2023-10-23T20:02:11.862Z,20.73
2023-10-23T20:04:39.245Z,18.40
2023-10-23T20:07:06.644Z,19.30
2023-10-23T20:09:33.557Z,20.83
2023-10-23T20:12:00.897Z,19.13
2023-10-23T20:14:27.806Z,19.27
2023-10-23T20:16:54.703Z,18.38
2023-10-23T20:19:21.840Z,19.83
2023-10-23T20:21:48.771Z,20.13
2023-10-23T20:24:15.841Z,18.70
2023-10-23T20:26:43.327Z,19.75
2023-10-23T20:29:10.141Z,20.45
2023-10-23T20:31:40.467Z,19.92
2023-10-23T20:34:08.275Z,20.33
2023-10-23T20:36:36.716Z,22.67
2023-10-23T20:39:03.769Z,19.90
2023-10-23T20:41:30.691Z,20.00
2023-10-23T20:43:57.739Z,18.30
2023-10-23T20:46:24.672Z,18.30
2023-10-23T20:48:51.726Z,18.83
2023-10-23T20:51:18.660Z,19.02
2023-10-23T20:53:45.467Z,19.70
2023-10-23T20:56:12.628Z,18.58
2023-10-23T20:58:39.455Z,18.17
2023-10-23T21:01:08.235Z,18.40
2023-10-23T21:03:37.930Z,17.50
2023-10-23T21:06:06.887Z,18.05
2023-10-23T21:08:38.202Z,17.90
2023-10-23T21:11:06.374Z,17.90
2023-10-23T21:13:33.637Z,17.50
2023-10-23T21:16:00.698Z,17.02
2023-10-23T21:18:27.753Z,17.98
2023-10-23T21:20:54.617Z,16.95
2023-10-23T21:23:21.558Z,17.60
2023-10-23T21:25:48.503Z,16.57
2023-10-23T21:28:15.336Z,16.65
2023-10-23T21:30:42.226Z,15.88
2023-10-23T21:33:09.267Z,16.67
2023-10-23T21:35:36.205Z,16.50
2023-10-23T21:38:03.638Z,15.97
2023-10-23T21:40:30.597Z,16.00
2023-10-23T21:42:57.453Z,16.33
2023-10-23T21:45:24.825Z,16.42
2023-10-23T21:47:53.436Z,16.02
2023-10-23T21:50:20.449Z,16.13
2023-10-23T21:52:47.424Z,16.58
2023-10-23T21:55:18.886Z,16.02
2023-10-23T21:57:46.930Z,16.50
2023-10-23T22:00:14.084Z,16.48
2023-10-23T22:02:41.304Z,15.77
2023-10-23T22:05:09.230Z,15.68
2023-10-23T22:07:36.627Z,15.30
2023-10-23T22:10:04.753Z,16.13
2023-10-23T22:12:32.053Z,14.30
2023-10-23T22:14:58.876Z,14.33
2023-10-23T22:17:26.038Z,15.40
2023-10-23T22:19:53.146Z,15.23
2023-10-23T22:22:19.992Z,15.30
2023-10-23T22:24:46.869Z,14.45
2023-10-23T22:27:13.897Z,14.63
2023-10-23T22:29:40.690Z,13.98
2023-10-23T22:32:07.943Z,14.23
2023-10-23T22:34:35.010Z,13.48
2023-10-23T22:38:05.511Z,14.13
2023-10-23T22:39:48.911Z,12.80
2023-10-23T22:42:15.691Z,12.60
2023-10-23T22:44:42.690Z,13.73
2023-10-23T22:47:09.811Z,12.80
2023-10-23T22:49:37.098Z,13.55
2023-10-23T22:52:04.800Z,13.90
2023-10-23T22:54:32.194Z,13.40
2023-10-23T22:57:03.124Z,12.18
2023-10-23T22:59:30.298Z,12.77
2023-10-23T23:01:57.749Z,12.35
2023-10-23T23:04:24.980Z,11.57
2023-10-23T23:06:53.232Z,11.95
2023-10-23T23:09:20.756Z,11.65
2023-10-23T23:11:47.873Z,10.55
2023-10-23T23:14:15.034Z,10.70
2023-10-23T23:16:44.767Z,10.70
2023-10-23T23:19:13.196Z,11.00
2023-10-23T23:21:44.729Z,11.13
2023-10-23T23:24:11.652Z,10.25
2023-10-23T23:26:38.898Z,10.25
2023-10-23T23:29:05.784Z,9.67
2023-10-23T23:31:32.804Z,9.25
2023-10-23T23:33:59.606Z,9.48
2023-10-23T23:36:26.460Z,9.70
2023-10-23T23:38:53.526Z,9.38
2023-10-23T23:41:20.255Z,8.97
2023-10-23T23:43:47.156Z,9.38
2023-10-23T23:46:14.599Z,9.50
2023-10-23T23:48:41.392Z,9.40
2023-10-23T23:51:08.850Z,9.55
2023-10-23T23:53:36.232Z,9.20
2023-10-23T23:56:03.146Z,8.95
2023-10-23T23:58:29.953Z,9.70
